Time;durP1;ratioP1;P1;durP2;ratioP2;P2;SDS_P1;SDS_P2;PMS_P1;PMS_P2;Temp;Humidity;BMP_temperature;BMP_pressure;BME280_temperature;BME280_humidity;BME280_pressure;Samples;Min_cycle;Max_cycle;Signal;HPM_P1;HPM_P2
2023/10/28 00:01:02;;;;;;;2.83;0.75;;;;;;;8.86;100.00;96854.22;15273758;19;20021;-50
2023/10/28 00:06:26;;;;;;;1.20;0.68;;;;;;;8.74;100.00;96855.72;15275145;19;20010;-52
2023/10/28 00:11:54;;;;;;;2.15;0.70;;;;;;;8.64;100.00;96851.44;15269427;19;20793;-51
2023/10/28 00:17:26;;;;;;;2.67;0.90;;;;;;;8.59;100.00;96864.63;15272565;19;20039;-52
2023/10/28 00:22:53;;;;;;;2.75;0.88;;;;;;;8.54;100.00;96867.00;15273147;19;20372;-54
2023/10/28 00:28:20;;;;;;;2.25;0.82;;;;;;;8.50;100.00;96870.25;15272004;19;20091;-52
2023/10/28 00:33:46;;;;;;;2.55;1.00;;;;;;;8.47;100.00;96874.13;14757240;19;10001047;-50
2023/10/28 00:39:11;;;;;;;4.60;1.00;;;;;;;8.51;100.00;96863.88;15273012;19;20014;-53
2023/10/28 00:44:39;;;;;;;1.98;0.95;;;;;;;8.48;100.00;96883.88;15259233;19;20015;-49
2023/10/28 00:50:03;;;;;;;3.08;0.95;;;;;;;8.43;100.00;96876.34;15266870;19;20108;-51
2023/10/28 00:55:30;;;;;;;3.58;0.90;;;;;;;8.42;100.00;96880.06;15267526;19;20085;-53
2023/10/28 01:00:58;;;;;;;2.38;1.00;;;;;;;8.34;100.00;96864.06;15267712;19;20816;-50
2023/10/28 01:06:23;;;;;;;2.50;0.90;;;;;;;8.29;100.00;96869.94;15266072;19;20041;-53
2023/10/28 01:11:48;;;;;;;1.40;0.80;;;;;;;8.30;100.00;96871.63;15267243;19;20011;-54
2023/10/28 01:17:16;;;;;;;4.43;1.20;;;;;;;8.31;100.00;96867.94;15259100;19;20043;-48
2023/10/28 01:22:43;;;;;;;1.50;0.88;;;;;;;8.30;100.00;96871.63;15265741;19;20389;-49
2023/10/28 01:28:08;;;;;;;2.85;0.80;;;;;;;8.31;100.00;96875.97;15269101;19;20011;-50
2023/10/28 01:33:32;;;;;;;2.38;0.80;;;;;;;8.32;100.00;96874.97;15266699;19;20033;-52
2023/10/28 01:39:00;;;;;;;2.00;0.82;;;;;;;8.36;100.00;96870.03;15269271;19;20384;-49
2023/10/28 01:44:25;;;;;;;5.13;1.10;;;;;;;8.37;100.00;96876.25;15266671;19;20014;-52
2023/10/28 01:49:50;;;;;;;3.78;0.85;;;;;;;8.39;100.00;96864.31;15266733;19;20226;-49
2023/10/28 01:55:17;;;;;;;4.13;1.08;;;;;;;8.45;100.00;96862.75;15269714;19;20022;-50
2023/10/28 02:00:42;;;;;;;3.17;0.90;;;;;;;8.48;100.00;96867.78;15265492;19;20018;-51
2023/10/28 02:06:06;;;;;;;2.47;0.80;;;;;;;8.49;100.00;96869.44;15268098;19;20015;-51
2023/10/28 02:11:38;;;;;;;4.07;0.85;;;;;;;8.47;100.00;96877.66;15272968;19;20010;-51
2023/10/28 02:17:04;;;;;;;3.38;0.90;;;;;;;8.53;100.00;96881.44;15275307;19;20010;-49
2023/10/28 02:22:31;;;;;;;2.80;0.80;;;;;;;8.46;100.00;96876.00;15277059;19;20082;-57
2023/10/28 02:27:59;;;;;;;4.38;1.15;;;;;;;8.35;100.00;96862.19;15282279;19;20014;-56
2023/10/28 02:33:25;;;;;;;4.32;0.95;;;;;;;8.24;100.00;96868.84;15274903;19;20025;-57
2023/10/28 02:38:49;;;;;;;2.28;1.10;;;;;;;8.15;100.00;96870.81;15282576;19;20017;-56
2023/10/28 02:44:17;;;;;;;4.18;1.13;;;;;;;8.14;100.00;96877.19;15275718;19;20038;-56
2023/10/28 02:49:44;;;;;;;3.42;1.10;;;;;;;8.15;100.00;96876.16;15272870;19;20021;-55
2023/10/28 02:55:10;;;;;;;4.78;1.20;;;;;;;8.21;100.00;96880.78;15281611;19;20025;-55
2023/10/28 03:00:32;;;;;;;5.00;1.30;;;;;;;8.33;100.00;96894.59;15279473;19;20031;-56
2023/10/28 03:05:56;;;;;;;3.17;1.10;;;;;;;8.47;100.00;96904.50;15280901;19;20007;-59
2023/10/28 03:11:21;;;;;;;3.33;1.20;;;;;;;8.60;100.00;96911.06;15271528;19;20018;-55
2023/10/28 03:16:55;;;;;;;3.20;1.20;;;;;;;8.67;100.00;96913.84;15276851;19;20689;-58
2023/10/28 03:22:20;;;;;;;4.10;0.93;;;;;;;8.72;100.00;96908.75;15262376;19;20019;-57
2023/10/28 03:27:46;;;;;;;4.82;1.15;;;;;;;8.76;100.00;96918.13;15274515;19;20559;-56
2023/10/28 03:33:14;;;;;;;3.72;1.10;;;;;;;8.76;100.00;96910.88;15272361;19;20046;-55
2023/10/28 03:38:40;;;;;;;2.90;1.10;;;;;;;8.77;100.00;96914.38;15276607;19;20464;-55
2023/10/28 03:44:05;;;;;;;4.65;1.10;;;;;;;8.78;100.00;96910.69;15271302;19;20018;-53
2023/10/28 03:49:33;;;;;;;3.78;1.08;;;;;;;8.78;100.00;96911.53;15274940;19;20090;-55
2023/10/28 03:54:58;;;;;;;2.50;1.05;;;;;;;8.79;100.00;96917.72;15270185;19;20429;-55
2023/10/28 04:00:23;;;;;;;3.15;1.00;;;;;;;8.81;100.00;96923.75;15273786;19;20078;-58
2023/10/28 04:05:51;;;;;;;4.10;1.30;;;;;;;8.84;100.00;96927.91;15276617;19;20092;-59
2023/10/28 04:11:16;;;;;;;3.35;0.95;;;;;;;8.88;100.00;96937.25;15269667;19;20527;-56
2023/10/28 04:16:41;;;;;;;2.80;1.13;;;;;;;8.89;100.00;96934.38;15273179;19;20025;-58
2023/10/28 04:22:09;;;;;;;3.63;1.10;;;;;;;8.88;100.00;96940.75;15273329;19;20017;-56
2023/10/28 04:27:34;;;;;;;3.38;1.00;;;;;;;8.88;100.00;96932.69;15269743;19;20090;-57
2023/10/28 04:33:00;;;;;;;3.58;1.20;;;;;;;8.88;100.00;96932.69;15270109;19;20046;-58
2023/10/28 04:38:28;;;;;;;3.90;1.00;;;;;;;8.86;100.00;96941.97;15272861;19;20794;-56
2023/10/28 04:43:52;;;;;;;2.63;1.00;;;;;;;8.84;100.00;96939.47;15268148;19;20017;-57
2023/10/28 04:49:17;;;;;;;3.05;1.00;;;;;;;8.85;100.00;96943.00;15269918;19;20026;-53
2023/10/28 04:54:44;;;;;;;2.90;1.00;;;;;;;8.84;100.00;96941.31;15272664;19;20486;-57
2023/10/28 05:00:11;;;;;;;3.15;1.15;;;;;;;8.86;100.00;96944.66;15265737;19;20098;-56
2023/10/28 05:05:36;;;;;;;1.23;0.85;;;;;;;8.85;100.00;96945.69;15269104;19;20523;-57
2023/10/28 05:11:04;;;;;;;2.10;0.90;;;;;;;8.87;100.00;96955.22;15263157;19;20051;-59
2023/10/28 05:16:29;;;;;;;2.45;0.88;;;;;;;8.89;100.00;96960.41;15267985;19;20039;-56
2023/10/28 05:21:54;;;;;;;2.65;1.20;;;;;;;8.88;100.00;96964.09;15267102;19;20090;-57
2023/10/28 05:27:21;;;;;;;7.93;1.35;;;;;;;8.88;100.00;96964.94;15269393;19;20018;-58
2023/10/28 05:32:46;;;;;;;4.18;1.30;;;;;;;8.91;100.00;96963.75;15262252;19;20018;-54
2023/10/28 05:38:11;;;;;;;6.25;1.38;;;;;;;8.94;100.00;96968.72;15269420;19;20428;-56
2023/10/28 05:43:39;;;;;;;2.88;1.20;;;;;;;8.96;100.00;96974.75;15268195;19;20021;-58
2023/10/28 05:49:04;;;;;;;4.13;1.40;;;;;;;8.99;100.00;96976.25;15281764;19;20014;-58
2023/10/28 05:54:28;;;;;;;3.35;1.10;;;;;;;8.99;100.00;96981.63;15284640;19;20019;-59
2023/10/28 05:59:56;;;;;;;4.05;1.40;;;;;;;8.99;100.00;96995.03;15283303;19;20028;-60
2023/10/28 06:05:21;;;;;;;2.13;1.00;;;;;;;8.99;100.00;96997.72;15280331;19;20021;-59
2023/10/28 06:10:45;;;;;;;4.05;1.30;;;;;;;8.99;100.00;97008.47;15280878;19;20081;-58
2023/10/28 06:16:13;;;;;;;2.58;1.30;;;;;;;9.00;100.00;97020.84;15280731;19;20479;-56
2023/10/28 06:21:37;;;;;;;3.72;1.27;;;;;;;9.00;100.00;97018.16;15281119;19;20352;-59
2023/10/28 06:27:02;;;;;;;1.95;1.30;;;;;;;9.03;100.00;97026.72;15284708;19;20030;-59
2023/10/28 06:32:30;;;;;;;5.45;1.30;;;;;;;9.06;100.00;97038.94;15278480;19;20471;-60
2023/10/28 06:37:56;;;;;;;2.42;1.25;;;;;;;9.07;100.00;97044.09;15278056;19;20416;-60
2023/10/28 06:43:20;;;;;;;2.08;1.10;;;;;;;9.11;100.00;97049.97;15272551;19;20017;-59
2023/10/28 06:48:48;;;;;;;2.90;1.20;;;;;;;9.12;100.00;97065.03;15276436;19;20014;-60
2023/10/28 06:54:14;;;;;;;3.40;1.50;;;;;;;9.17;100.00;97064.50;15274726;19;20433;-60
2023/10/28 06:59:40;;;;;;;2.13;1.50;;;;;;;9.17;100.00;97070.69;15278354;19;20074;-58
2023/10/28 07:05:08;;;;;;;2.47;1.50;;;;;;;9.18;100.00;97075.06;15279641;19;20656;-56
2023/10/28 07:10:33;;;;;;;2.83;1.48;;;;;;;9.22;100.00;97081.75;15271526;19;20031;-60
2023/10/28 07:16:08;;;;;;;2.03;1.25;;;;;;;9.27;100.00;97091.94;15276713;19;20475;-60
2023/10/28 07:21:36;;;;;;;2.80;1.30;;;;;;;9.30;100.00;97098.78;15276231;19;20039;-59
2023/10/28 07:27:00;;;;;;;1.20;1.10;;;;;;;9.33;100.00;97115.38;15274377;19;20011;-58
2023/10/28 07:32:25;;;;;;;2.00;1.05;;;;;;;9.46;100.00;97128.16;15272574;19;20018;-59
2023/10/28 07:37:52;;;;;;;1.67;0.60;;;;;;;9.50;100.00;97126.75;15276620;19;20018;-58
2023/10/28 07:43:26;;;;;;;0.40;0.40;;;;;;;9.54;100.00;97129.91;15267439;19;20022;-60
2023/10/28 07:48:53;;;;;;;0.52;0.30;;;;;;;9.62;100.00;97147.78;15279524;19;20014;-59
2023/10/28 07:54:21;;;;;;;0.57;0.25;;;;;;;9.70;100.00;97139.66;15276006;19;20025;-58
2023/10/28 07:59:45;;;;;;;0.85;0.30;;;;;;;9.75;100.00;97156.03;15275672;19;20035;-61
2023/10/28 08:05:10;;;;;;;0.68;0.30;;;;;;;9.84;100.00;97157.59;15275684;19;20035;-57
2023/10/28 08:10:37;;;;;;;0.40;0.20;;;;;;;9.96;100.00;97166.03;15274410;19;20031;-58
2023/10/28 08:16:09;;;;;;;0.73;0.30;;;;;;;10.13;100.00;97172.03;15271314;19;20358;-58
2023/10/28 08:21:34;;;;;;;1.13;0.40;;;;;;;10.29;100.00;97189.78;15266006;19;20471;-53
2023/10/28 08:27:02;;;;;;;0.30;0.20;;;;;;;10.38;100.00;97184.31;15273415;19;20025;-54
2023/10/28 08:32:27;;;;;;;0.68;0.40;;;;;;;10.33;100.00;97172.25;15268360;19;20760;-55
2023/10/28 08:37:52;;;;;;;1.35;0.40;;;;;;;10.34;100.00;97189.22;15274756;19;20018;-59
2023/10/28 08:43:19;;;;;;;1.00;0.50;;;;;;;10.43;100.00;97180.03;15271171;19;20462;-58
2023/10/28 08:48:45;;;;;;;2.15;0.45;;;;;;;10.59;100.00;97176.25;15276146;19;20016;-58
2023/10/28 08:54:13;;;;;;;0.93;0.50;;;;;;;10.69;100.00;97175.13;15269740;19;20376;-55
2023/10/28 08:59:40;;;;;;;1.25;0.47;;;;;;;10.78;100.00;97179.34;15271946;19;20435;-58
2023/10/28 09:05:05;;;;;;;2.10;0.40;;;;;;;10.96;100.00;97192.34;15270295;19;20093;-54
2023/10/28 09:10:30;;;;;;;0.98;0.30;;;;;;;11.14;100.00;97182.94;15270334;19;20109;-52
2023/10/28 09:15:57;;;;;;;0.52;0.30;;;;;;;11.20;100.00;97184.88;15266705;19;20051;-59
2023/10/28 09:21:22;;;;;;;0.77;0.38;;;;;;;11.20;100.00;97179.47;15265907;19;20036;-56
2023/10/28 09:26:50;;;;;;;0.98;0.40;;;;;;;11.33;100.00;97179.56;15271922;19;20073;-58
2023/10/28 09:32:19;;;;;;;3.05;0.57;;;;;;;11.48;100.00;97173.22;15284252;19;20015;-57
2023/10/28 09:37:44;;;;;;;1.60;0.40;;;;;;;11.68;100.00;97152.59;15316206;19;20018;-57
2023/10/28 09:43:10;;;;;;;0.82;0.40;;;;;;;11.74;100.00;97152.81;15267780;19;20385;-57
2023/10/28 09:48:45;;;;;;;0.85;0.30;;;;;;;11.72;100.00;97132.28;15265386;19;20483;-58
2023/10/28 09:54:19;;;;;;;0.38;0.22;;;;;;;11.81;100.00;97134.81;15264689;19;20486;-58
2023/10/28 09:59:47;;;;;;;0.40;0.30;;;;;;;11.84;100.00;97135.25;15268695;19;20018;-56
2023/10/28 10:05:30;;;;;;;1.95;0.30;;;;;;;11.81;100.00;97124.03;15268271;19;20531;-58
2023/10/28 10:10:59;;;;;;;1.15;0.30;;;;;;;11.84;100.00;97096.63;15266584;19;20021;-58
2023/10/28 10:16:38;;;;;;;0.80;0.30;;;;;;;11.87;100.00;97096.22;15265579;19;20022;-57
2023/10/28 10:22:09;;;;;;;2.00;0.40;;;;;;;12.00;100.00;97101.69;15255947;19;20020;-54
2023/10/28 10:27:45;;;;;;;1.05;0.43;;;;;;;12.19;100.00;97099.25;15266362;19;20082;-57
2023/10/28 10:33:11;;;;;;;1.20;0.40;;;;;;;12.21;100.00;97086.38;15276291;19;20014;-57
2023/10/28 10:38:40;;;;;;;1.90;0.50;;;;;;;12.11;100.00;97088.63;15280409;19;20014;-55
2023/10/28 10:44:27;;;;;;;1.25;0.50;;;;;;;12.01;100.00;97083.63;15273400;19;20039;-56
2023/10/28 10:49:51;;;;;;;1.73;0.50;;;;;;;11.94;100.00;97102.47;15272396;19;20021;-56
2023/10/28 10:55:27;;;;;;;0.65;0.30;;;;;;;11.95;100.00;97098.72;15272110;19;20022;-55
2023/10/28 11:01:00;;;;;;;2.85;0.60;;;;;;;12.05;100.00;97101.09;15276060;19;20078;-57
2023/10/28 11:06:26;;;;;;;1.42;0.68;;;;;;;12.04;100.00;97096.72;15280638;19;20022;-56
2023/10/28 11:11:54;;;;;;;2.25;0.63;;;;;;;12.07;100.00;97100.88;15273553;19;20015;-56
2023/10/28 11:17:20;;;;;;;1.73;0.65;;;;;;;12.07;100.00;97093.63;15275431;19;20055;-52
2023/10/28 11:22:46;;;;;;;1.55;0.60;;;;;;;12.09;100.00;97094.25;15274045;19;20025;-56
2023/10/28 11:28:13;;;;;;;1.70;0.43;;;;;;;12.11;100.00;97091.34;15275531;19;20042;-55
2023/10/28 11:33:38;;;;;;;2.05;0.70;;;;;;;12.02;100.00;97079.91;15272780;19;20015;-55
2023/10/28 11:39:13;;;;;;;2.60;0.70;;;;;;;12.04;100.00;97075.13;15274825;19;20035;-56
2023/10/28 11:44:40;;;;;;;2.78;0.70;;;;;;;12.00;100.00;97074.72;15274293;19;20021;-51
2023/10/28 11:50:05;;;;;;;2.00;0.60;;;;;;;11.95;100.00;97069.03;15275153;19;20085;-55
2023/10/28 11:55:31;;;;;;;2.40;0.70;;;;;;;11.95;100.00;97079.84;15276651;19;20090;-54
2023/10/28 12:00:58;;;;;;;4.95;0.75;;;;;;;12.03;100.00;97078.84;15271125;19;20023;-54
2023/10/28 12:06:23;;;;;;;2.72;1.00;;;;;;;12.11;100.00;97075.16;15272709;19;20026;-56
2023/10/28 12:11:49;;;;;;;4.07;0.70;;;;;;;12.15;100.00;97068.31;15272441;19;20022;-56
2023/10/28 12:17:24;;;;;;;1.45;0.60;;;;;;;12.13;100.00;97070.38;15274058;19;20029;-55
2023/10/28 12:22:48;;;;;;;3.15;0.88;;;;;;;12.14;100.00;97080.97;15272214;19;20102;-54
2023/10/28 12:28:14;;;;;;;2.53;0.70;;;;;;;12.13;100.00;97078.47;15275297;19;20468;-52
2023/10/28 12:33:42;;;;;;;1.75;0.60;;;;;;;12.05;100.00;97075.97;15263351;19;20412;-51
2023/10/28 12:39:10;;;;;;;1.98;0.68;;;;;;;12.01;100.00;97076.38;15272095;19;20022;-53
2023/10/28 12:44:36;;;;;;;1.70;0.68;;;;;;;12.01;100.00;97079.06;15272164;19;20014;-55
2023/10/28 12:50:05;;;;;;;2.90;0.77;;;;;;;12.13;100.00;97089.28;15265419;19;20018;-56
2023/10/28 12:55:30;;;;;;;2.40;0.63;;;;;;;12.38;100.00;97088.69;15271222;19;20014;-56
2023/10/28 13:00:56;;;;;;;1.65;0.60;;;;;;;12.61;100.00;97078.34;15268632;19;20018;-53
2023/10/28 13:06:24;;;;;;;1.80;0.65;;;;;;;12.76;100.00;97072.72;15268452;19;20027;-52
2023/10/28 13:11:49;;;;;;;3.08;0.68;;;;;;;12.90;100.00;97073.53;15268460;19;20480;-54
2023/10/28 13:17:14;;;;;;;1.08;0.43;;;;;;;13.02;100.00;97059.38;15269820;19;20018;-52
2023/10/28 13:22:42;;;;;;;1.13;0.50;;;;;;;13.16;100.00;97060.19;15266971;19;20030;-56
2023/10/28 13:28:10;;;;;;;2.50;0.47;;;;;;;13.12;100.00;97045.41;15271766;19;20018;-52
2023/10/28 13:33:36;;;;;;;1.02;0.45;;;;;;;12.99;100.00;97049.81;15265555;19;20014;-54
2023/10/28 13:39:04;;;;;;;0.98;0.40;;;;;;;12.86;100.00;97039.88;15270438;19;20032;-54
2023/10/28 13:44:29;;;;;;;0.70;0.40;;;;;;;12.73;100.00;97045.28;15281505;19;20015;-55
2023/10/28 13:49:54;;;;;;;0.90;0.50;;;;;;;12.68;100.00;97047.75;15268048;19;20023;-54
2023/10/28 13:55:22;;;;;;;1.02;0.43;;;;;;;12.56;100.00;97044.88;15264854;19;20058;-51
2023/10/28 14:00:48;;;;;;;2.00;0.70;;;;;;;12.49;100.00;97036.75;15263065;19;20102;-54
2023/10/28 14:06:15;;;;;;;1.50;0.50;;;;;;;12.45;100.00;97033.66;15268957;19;20028;-51
2023/10/28 14:11:42;;;;;;;1.60;0.70;;;;;;;12.42;100.00;97023.25;15276562;19;20010;-53
2023/10/28 14:17:08;;;;;;;2.40;0.80;;;;;;;12.39;100.00;97025.56;15276710;19;20043;-57
2023/10/28 14:22:32;;;;;;;1.95;0.70;;;;;;;12.37;100.00;97030.31;15278127;19;20022;-55
2023/10/28 14:28:00;;;;;;;3.67;0.90;;;;;;;12.36;100.00;97028.66;15286390;19;20019;-53
2023/10/28 14:33:24;;;;;;;2.08;0.80;;;;;;;12.36;100.00;97028.66;15280809;19;20023;-53
2023/10/28 14:38:49;;;;;;;2.58;0.82;;;;;;;12.36;100.00;97036.75;15284118;19;20022;-51
2023/10/28 14:44:17;;;;;;;2.60;0.90;;;;;;;12.35;100.00;97041.31;15283482;19;20014;-52
2023/10/28 14:49:43;;;;;;;4.07;1.02;;;;;;;12.30;100.00;97033.84;15289782;19;20019;-56
2023/10/28 14:55:10;;;;;;;1.90;0.90;;;;;;;12.24;100.00;97036.53;15283175;19;20019;-55
2023/10/28 15:00:38;;;;;;;2.70;1.00;;;;;;;12.19;100.00;97039.84;15287593;19;20089;-53
2023/10/28 15:06:04;;;;;;;2.35;0.98;;;;;;;12.14;100.00;97042.34;15289550;19;20014;-51
2023/10/28 15:11:29;;;;;;;2.22;0.88;;;;;;;12.11;100.00;97053.56;15280101;19;20010;-53
2023/10/28 15:16:56;;;;;;;3.40;1.00;;;;;;;12.05;100.00;97051.69;15285751;19;20830;-54
2023/10/28 15:22:21;;;;;;;2.65;0.93;;;;;;;11.98;100.00;97063.28;15286180;19;20022;-55
2023/10/28 15:27:45;;;;;;;2.45;1.00;;;;;;;11.90;100.00;97054.50;15292649;19;20033;-51
2023/10/28 15:33:13;;;;;;;4.03;1.27;;;;;;;11.84;100.00;97051.59;15283842;19;20007;-52
2023/10/28 15:38:38;;;;;;;2.15;1.10;;;;;;;11.80;100.00;97054.91;15286868;19;20013;-51
2023/10/28 15:44:02;;;;;;;2.17;1.02;;;;;;;11.71;100.00;97068.56;15275960;19;20081;-51
2023/10/28 15:49:30;;;;;;;2.85;1.00;;;;;;;11.62;100.00;97072.47;15285195;19;20011;-55
2023/10/28 15:54:55;;;;;;;3.78;1.10;;;;;;;11.56;100.00;97074.09;15279590;19;20015;-57
2023/10/28 16:00:21;;;;;;;3.65;1.42;;;;;;;11.55;100.00;97082.41;15281948;19;20014;-53
2023/10/28 16:05:48;;;;;;;4.88;1.42;;;;;;;11.55;100.00;97079.72;15283572;19;20408;-58
2023/10/28 16:11:13;;;;;;;3.25;1.17;;;;;;;11.53;100.00;97090.69;15282410;19;20011;-54
2023/10/28 16:16:38;;;;;;;3.30;1.20;;;;;;;11.57;100.00;97101.94;15280008;19;20015;-52
2023/10/28 16:22:06;;;;;;;3.33;1.20;;;;;;;11.60;100.00;97106.91;15282291;19;20090;-55
2023/10/28 16:27:31;;;;;;;3.88;1.20;;;;;;;11.52;100.00;97117.88;15278918;19;20020;-52
2023/10/28 16:32:56;;;;;;;3.47;1.35;;;;;;;11.46;100.00;97127.59;15277990;19;20025;-55
2023/10/28 16:38:24;;;;;;;5.35;1.67;;;;;;;11.41;100.00;97128.19;15284043;19;20021;-53
2023/10/28 16:43:49;;;;;;;4.47;1.80;;;;;;;11.39;100.00;97132.13;15277792;19;20021;-51
2023/10/28 16:49:13;;;;;;;5.30;1.67;;;;;;;11.34;100.00;97156.97;15275738;19;20037;-52
2023/10/28 16:54:40;;;;;;;4.25;1.33;;;;;;;11.31;100.00;97157.38;15278561;19;20046;-55
2023/10/28 17:00:05;;;;;;;5.97;1.45;;;;;;;11.27;100.00;97158.78;15282088;19;20029;-54
2023/10/28 17:05:31;;;;;;;3.05;1.20;;;;;;;11.21;100.00;97157.72;15281817;19;20070;-53
2023/10/28 17:10:59;;;;;;;4.63;1.67;;;;;;;11.19;100.00;97169.72;15279443;19;20014;-52
2023/10/28 17:16:17;;;;;;;3.20;1.63;;;;;;;11.14;100.00;97174.84;15276381;19;20031;-51
2023/10/28 17:21:48;;;;;;;3.08;1.40;;;;;;;11.05;100.00;97168.78;15274505;19;20749;-55
2023/10/28 17:27:16;;;;;;;4.55;1.23;;;;;;;10.93;100.00;97165.78;15277974;19;20345;-53
2023/10/28 17:32:41;;;;;;;3.45;1.40;;;;;;;10.84;100.00;97177.72;15275944;19;20018;-54
2023/10/28 17:38:06;;;;;;;2.22;1.10;;;;;;;10.74;100.00;97186.97;15277439;19;20031;-51
2023/10/28 17:43:34;;;;;;;4.07;1.55;;;;;;;10.66;100.00;97187.09;15267751;19;20031;-51
2023/10/28 17:48:59;;;;;;;2.42;1.20;;;;;;;10.59;100.00;97192.41;15275749;19;20043;-50
2023/10/28 17:54:24;;;;;;;2.65;1.15;;;;;;;10.54;100.00;97210.16;15268119;19;20502;-53
2023/10/28 17:59:52;;;;;;;3.00;1.13;;;;;;;10.44;100.00;97211.31;15271774;19;20463;-55
2023/10/28 18:05:21;;;;;;;5.18;1.10;;;;;;;10.39;100.00;97213.75;15275733;19;20018;-55
2023/10/28 18:10:46;;;;;;;1.88;0.85;;;;;;;10.37;100.00;97213.06;15271427;19;20018;-51
2023/10/28 18:16:16;;;;;;;0.98;0.60;;;;;;;10.37;100.00;97210.38;15272504;19;20010;-51
2023/10/28 18:21:50;;;;;;;1.20;0.60;;;;;;;10.36;100.00;97197.94;15275059;19;20043;-50
2023/10/28 18:27:16;;;;;;;1.50;0.55;;;;;;;10.36;100.00;97203.34;15269422;19;20003;-50
2023/10/28 18:32:47;;;;;;;1.38;0.40;;;;;;;10.32;100.00;97202.88;15270788;19;21292;-50
2023/10/28 18:38:12;;;;;;;1.87;0.80;;;;;;;10.33;100.00;97218.00;15272234;19;20021;-54
2023/10/28 18:43:37;;;;;;;1.75;0.55;;;;;;;10.36;100.00;97224.88;15267782;19;20279;-53
2023/10/28 18:49:05;;;;;;;1.85;0.88;;;;;;;10.37;100.00;97220.31;15274355;19;20022;-50
2023/10/28 18:54:30;;;;;;;1.40;0.55;;;;;;;10.30;100.00;97231.00;15262927;19;20006;-55
2023/10/28 18:59:55;;;;;;;11.05;7.95;;;;;;;10.25;100.00;97214.59;15282787;19;20074;-53
2023/10/28 19:05:22;;;;;;;4.95;4.30;;;;;;;10.18;100.00;97207.25;15286225;19;20699;-50
2023/10/28 19:10:52;;;;;;;1.83;0.82;;;;;;;10.12;100.00;97218.78;15284465;19;20041;-55
2023/10/28 19:16:17;;;;;;;1.90;1.70;;;;;;;10.11;100.00;97225.19;15283467;19;20523;-50
2023/10/28 19:21:52;;;;;;;2.83;2.20;;;;;;;10.10;100.00;97233.47;15280546;19;20478;-55
2023/10/28 19:27:17;;;;;;;4.57;4.05;;;;;;;10.12;100.00;97229.56;15283211;19;20475;-52
2023/10/28 19:32:41;;;;;;;6.15;4.32;;;;;;;10.14;100.00;97251.75;15278245;19;20033;-56
2023/10/28 19:38:08;;;;;;;2.20;1.75;;;;;;;10.16;100.00;97247.00;15285491;19;20088;-51
2023/10/28 19:43:33;;;;;;;2.28;1.17;;;;;;;10.18;100.00;97250.31;15281075;19;20035;-53
2023/10/28 19:48:58;;;;;;;0.90;0.80;;;;;;;10.21;100.00;97245.59;15286417;19;20081;-50
2023/10/28 19:54:25;;;;;;;1.63;0.80;;;;;;;10.21;100.00;97243.75;15280146;19;20014;-54
2023/10/28 19:59:52;;;;;;;1.05;0.73;;;;;;;10.20;100.00;97255.53;15285112;19;20014;-53
2023/10/28 20:05:16;;;;;;;1.42;0.70;;;;;;;10.23;100.00;97257.00;15276867;19;20078;-50
2023/10/28 20:10:44;;;;;;;1.02;0.65;;;;;;;10.24;100.00;97256.81;15283973;19;20018;-52
2023/10/28 20:16:09;;;;;;;0.70;0.50;;;;;;;10.28;100.00;97262.69;15281818;19;20019;-53
2023/10/28 20:21:40;;;;;;;0.75;0.60;;;;;;;10.31;100.00;97273.03;15277853;19;20022;-54
2023/10/28 20:27:07;;;;;;;1.53;0.80;;;;;;;10.29;100.00;97275.13;15282477;19;20006;-53
2023/10/28 20:32:32;;;;;;;2.05;0.88;;;;;;;10.26;100.00;97268.22;15276418;19;20793;-50
2023/10/28 20:37:58;;;;;;;1.83;0.90;;;;;;;10.20;100.00;97262.75;15279747;19;20480;-54
2023/10/28 20:43:25;;;;;;;1.85;0.60;;;;;;;10.15;100.00;97256.09;15270933;19;20029;-54
2023/10/28 20:48:50;;;;;;;2.95;0.90;;;;;;;10.11;100.00;97252.09;15277007;19;20078;-52
2023/10/28 20:54:15;;;;;;;1.70;0.60;;;;;;;10.08;100.00;97260.53;15270899;19;20024;-53
2023/10/28 20:59:42;;;;;;;2.45;0.70;;;;;;;10.10;100.00;97247.75;15272770;19;20491;-50
2023/10/28 21:05:07;;;;;;;2.00;0.70;;;;;;;10.10;100.00;97252.31;15269650;19;20018;-54
2023/10/28 21:10:33;;;;;;;1.48;0.80;;;;;;;10.13;100.00;97254.59;15278554;19;20042;-53
2023/10/28 21:16:00;;;;;;;2.15;0.70;;;;;;;10.20;100.00;97263.59;15276142;19;20047;-53
2023/10/28 21:21:32;;;;;;;1.80;0.60;;;;;;;10.23;100.00;97260.53;15275368;19;20455;-54
2023/10/28 21:26:57;;;;;;;2.47;0.80;;;;;;;10.30;100.00;97255.22;15278315;19;20022;-52
2023/10/28 21:32:30;;;;;;;1.85;0.68;;;;;;;10.33;100.00;97257.53;15275940;19;20379;-51
2023/10/28 21:37:55;;;;;;;1.40;0.55;;;;;;;10.34;100.00;97245.75;15271298;19;20018;-53
2023/10/28 21:43:20;;;;;;;1.55;0.60;;;;;;;10.29;100.00;97235.56;15268830;19;20015;-53
2023/10/28 21:48:47;;;;;;;2.35;0.80;;;;;;;10.25;100.00;97234.25;15277117;19;20014;-51
2023/10/28 21:54:13;;;;;;;2.83;0.65;;;;;;;10.25;100.00;97241.50;15270924;19;20014;-51
2023/10/28 21:59:38;;;;;;;1.30;0.52;;;;;;;10.23;100.00;97248.94;15275675;19;20029;-50
2023/10/28 22:05:05;;;;;;;1.92;0.60;;;;;;;10.22;100.00;97268.78;15274644;19;20023;-53
2023/10/28 22:10:30;;;;;;;2.38;0.70;;;;;;;10.24;100.00;97242.53;15271078;19;20355;-49
2023/10/28 22:15:54;;;;;;;2.75;0.70;;;;;;;10.25;100.00;97239.63;15272620;19;20016;-52
2023/10/28 22:21:21;;;;;;;1.10;0.65;;;;;;;10.28;100.00;97238.44;15272125;19;20022;-50
2023/10/28 22:26:47;;;;;;;2.90;0.80;;;;;;;10.30;100.00;97247.16;15281281;19;20300;-51
2023/10/28 22:32:12;;;;;;;2.70;0.90;;;;;;;10.32;100.00;97229.81;15285919;19;20490;-51
2023/10/28 22:37:39;;;;;;;2.03;0.80;;;;;;;10.36;100.00;97227.56;15285817;19;20014;-52
2023/10/28 22:43:04;;;;;;;2.25;0.80;;;;;;;10.35;100.00;97223.19;15278878;19;20101;-52
2023/10/28 22:48:30;;;;;;;2.35;0.80;;;;;;;10.36;100.00;97224.00;15290804;19;20082;-51
2023/10/28 22:53:58;;;;;;;2.40;1.00;;;;;;;10.38;100.00;97222.84;15282562;19;20021;-51
2023/10/28 22:59:24;;;;;;;2.83;0.82;;;;;;;10.41;100.00;97210.88;15289422;19;20030;-55
2023/10/28 23:04:49;;;;;;;2.47;1.00;;;;;;;10.43;100.00;97220.41;15285288;19;20792;-52
2023/10/28 23:10:17;;;;;;;3.72;1.00;;;;;;;10.46;100.00;97219.22;15286587;19;20020;-53
2023/10/28 23:15:42;;;;;;;2.20;0.90;;;;;;;10.52;100.00;97212.25;15278882;19;20077;-54
2023/10/28 23:21:15;;;;;;;3.08;0.80;;;;;;;10.56;100.00;97208.13;15281222;19;20017;-52
2023/10/28 23:26:43;;;;;;;4.55;1.20;;;;;;;10.60;100.00;97190.56;15287451;19;20011;-51
2023/10/28 23:32:09;;;;;;;2.75;0.80;;;;;;;10.62;100.00;97193.91;15283450;19;20560;-51
2023/10/28 23:37:35;;;;;;;3.33;1.00;;;;;;;10.64;100.00;97173.00;15281059;19;20867;-51
2023/10/28 23:43:03;;;;;;;2.40;1.00;;;;;;;10.70;100.00;97191.06;15282774;19;20014;-52
2023/10/28 23:48:29;;;;;;;3.20;1.10;;;;;;;10.74;100.00;97173.50;15280096;19;20018;-50
2023/10/28 23:53:54;;;;;;;3.30;1.00;;;;;;;10.81;100.00;97173.56;15278542;19;20022;-51
2023/10/28 23:59:21;;;;;;;3.70;1.02;;;;;;;10.84;100.00;97175.03;15286750;19;20010;-52
